sensor_id;sensor_type;location;lat;lon;timestamp;temperature;humidity
18624;DHT22;9441;51.420;7.036;2024-02-16T00:00:49;13.30;99.90
18624;DHT22;9441;51.420;7.036;2024-02-16T00:01:51;13.30;99.90
18624;DHT22;9441;51.420;7.036;2024-02-16T00:02:52;13.40;99.90
18624;DHT22;9441;51.420;7.036;2024-02-16T00:03:54;13.30;99.90
18624;DHT22;9441;51.420;7.036;2024-02-16T00:04:55;13.30;99.90
18624;DHT22;9441;51.420;7.036;2024-02-16T00:05:57;13.30;99.90
18624;DHT22;9441;51.420;7.036;2024-02-16T00:06:58;13.20;99.90
18624;DHT22;9441;51.420;7.036;2024-02-16T00:08:00;13.20;99.90
18624;DHT22;9441;51.420;7.036;2024-02-16T00:09:03;13.20;99.90
18624;DHT22;9441;51.420;7.036;2024-02-16T00:10:06;13.20;99.90
18624;DHT22;9441;51.420;7.036;2024-02-16T00:11:07;13.30;99.90
18624;DHT22;9441;51.420;7.036;2024-02-16T00:12:10;13.20;99.90
18624;DHT22;9441;51.420;7.036;2024-02-16T00:13:12;13.20;99.90
18624;DHT22;9441;51.420;7.036;2024-02-16T00:14:15;13.30;99.90
18624;DHT22;9441;51.420;7.036;2024-02-16T00:15:16;13.30;99.90
18624;DHT22;9441;51.420;7.036;2024-02-16T00:16:18;13.20;99.90
18624;DHT22;9441;51.420;7.036;2024-02-16T00:17:19;13.30;99.90
18624;DHT22;9441;51.420;7.036;2024-02-16T00:18:21;13.30;99.90
18624;DHT22;9441;51.420;7.036;2024-02-16T00:19:23;13.20;99.90
18624;DHT22;9441;51.420;7.036;2024-02-16T00:20:25;13.20;99.90
18624;DHT22;9441;51.420;7.036;2024-02-16T00:21:26;13.20;99.90
18624;DHT22;9441;51.420;7.036;2024-02-16T00:22:27;13.20;99.90
18624;DHT22;9441;51.420;7.036;2024-02-16T00:23:29;13.10;99.90
18624;DHT22;9441;51.420;7.036;2024-02-16T00:24:30;13.10;99.90
18624;DHT22;9441;51.420;7.036;2024-02-16T00:25:33;13.10;1.00
18624;DHT22;9441;51.420;7.036;2024-02-16T00:26:34;13.00;1.00
18624;DHT22;9441;51.420;7.036;2024-02-16T00:27:36;13.00;1.00
18624;DHT22;9441;51.420;7.036;2024-02-16T00:28:37;13.10;99.90
18624;DHT22;9441;51.420;7.036;2024-02-16T00:29:41;13.30;99.90
18624;DHT22;9441;51.420;7.036;2024-02-16T00:30:42;13.30;40.10
18624;DHT22;9441;51.420;7.036;2024-02-16T00:31:43;13.20;59.40
18624;DHT22;9441;51.420;7.036;2024-02-16T00:32:45;13.20;99.90
18624;DHT22;9441;51.420;7.036;2024-02-16T00:33:46;13.20;99.90
18624;DHT22;9441;51.420;7.036;2024-02-16T00:34:48;13.10;99.90
18624;DHT22;9441;51.420;7.036;2024-02-16T00:35:49;13.10;99.90
18624;DHT22;9441;51.420;7.036;2024-02-16T00:36:53;13.20;99.90
18624;DHT22;9441;51.420;7.036;2024-02-16T00:37:54;13.20;99.90
18624;DHT22;9441;51.420;7.036;2024-02-16T00:38:58;13.20;99.90
18624;DHT22;9441;51.420;7.036;2024-02-16T00:39:59;13.10;99.90
18624;DHT22;9441;51.420;7.036;2024-02-16T00:41:01;13.20;99.90
18624;DHT22;9441;51.420;7.036;2024-02-16T00:42:02;13.30;99.90
18624;DHT22;9441;51.420;7.036;2024-02-16T00:43:04;13.30;90.90
18624;DHT22;9441;51.420;7.036;2024-02-16T00:44:05;13.30;99.90
18624;DHT22;9441;51.420;7.036;2024-02-16T00:45:09;13.40;1.00
18624;DHT22;9441;51.420;7.036;2024-02-16T00:46:10;13.40;1.00
18624;DHT22;9441;51.420;7.036;2024-02-16T00:47:12;13.40;1.00
18624;DHT22;9441;51.420;7.036;2024-02-16T00:48:15;13.40;1.00
18624;DHT22;9441;51.420;7.036;2024-02-16T00:49:18;13.30;1.00
18624;DHT22;9441;51.420;7.036;2024-02-16T00:50:19;13.30;11.40
18624;DHT22;9441;51.420;7.036;2024-02-16T00:51:21;13.30;1.00
18624;DHT22;9441;51.420;7.036;2024-02-16T00:52:22;13.40;1.00
18624;DHT22;9441;51.420;7.036;2024-02-16T00:53:23;13.40;1.00
18624;DHT22;9441;51.420;7.036;2024-02-16T00:54:25;13.40;1.00
18624;DHT22;9441;51.420;7.036;2024-02-16T00:55:27;13.30;1.00
18624;DHT22;9441;51.420;7.036;2024-02-16T00:56:28;13.30;1.00
18624;DHT22;9441;51.420;7.036;2024-02-16T00:57:30;13.20;4.70
18624;DHT22;9441;51.420;7.036;2024-02-16T00:58:31;13.30;38.40
18624;DHT22;9441;51.420;7.036;2024-02-16T00:59:33;13.20;99.90
18624;DHT22;9441;51.420;7.036;2024-02-16T01:00:35;13.20;99.90
18624;DHT22;9441;51.420;7.036;2024-02-16T01:01:37;13.10;99.90
18624;DHT22;9441;51.420;7.036;2024-02-16T01:02:39;13.10;99.90
18624;DHT22;9441;51.420;7.036;2024-02-16T01:03:41;13.20;99.90
18624;DHT22;9441;51.420;7.036;2024-02-16T01:04:42;13.20;99.90
18624;DHT22;9441;51.420;7.036;2024-02-16T01:05:44;13.10;99.90
18624;DHT22;9441;51.420;7.036;2024-02-16T01:06:45;13.20;99.90
18624;DHT22;9441;51.420;7.036;2024-02-16T01:07:47;13.20;63.80
18624;DHT22;9441;51.420;7.036;2024-02-16T01:08:48;13.10;99.90
18624;DHT22;9441;51.420;7.036;2024-02-16T01:09:50;13.10;99.90
18624;DHT22;9441;51.420;7.036;2024-02-16T01:10:51;13.10;99.90
18624;DHT22;9441;51.420;7.036;2024-02-16T01:11:53;13.20;99.90
18624;DHT22;9441;51.420;7.036;2024-02-16T01:12:54;13.20;99.90
18624;DHT22;9441;51.420;7.036;2024-02-16T01:13:56;13.30;99.90
18624;DHT22;9441;51.420;7.036;2024-02-16T01:14:57;13.30;37.70
18624;DHT22;9441;51.420;7.036;2024-02-16T01:16:02;13.30;1.00
18624;DHT22;9441;51.420;7.036;2024-02-16T01:17:03;13.30;1.00
18624;DHT22;9441;51.420;7.036;2024-02-16T01:18:05;13.30;1.00
18624;DHT22;9441;51.420;7.036;2024-02-16T01:19:06;13.40;1.00
18624;DHT22;9441;51.420;7.036;2024-02-16T01:20:11;13.30;1.00
18624;DHT22;9441;51.420;7.036;2024-02-16T01:21:13;13.20;1.00
18624;DHT22;9441;51.420;7.036;2024-02-16T01:22:15;13.20;71.90
18624;DHT22;9441;51.420;7.036;2024-02-16T01:23:16;13.10;99.90
18624;DHT22;9441;51.420;7.036;2024-02-16T01:24:18;13.20;92.40
18624;DHT22;9441;51.420;7.036;2024-02-16T01:25:19;13.20;31.60
18624;DHT22;9441;51.420;7.036;2024-02-16T01:26:20;13.10;99.90
18624;DHT22;9441;51.420;7.036;2024-02-16T01:27:22;13.10;99.90
18624;DHT22;9441;51.420;7.036;2024-02-16T01:28:23;13.10;99.90
18624;DHT22;9441;51.420;7.036;2024-02-16T01:29:25;13.00;99.90
18624;DHT22;9441;51.420;7.036;2024-02-16T01:30:27;13.00;1.00
18624;DHT22;9441;51.420;7.036;2024-02-16T01:31:29;13.00;1.00
18624;DHT22;9441;51.420;7.036;2024-02-16T01:32:31;13.00;1.00
18624;DHT22;9441;51.420;7.036;2024-02-16T01:33:32;13.00;1.00
18624;DHT22;9441;51.420;7.036;2024-02-16T01:34:35;13.00;1.00
18624;DHT22;9441;51.420;7.036;2024-02-16T01:35:36;13.00;1.00
18624;DHT22;9441;51.420;7.036;2024-02-16T01:36:37;13.00;1.00
18624;DHT22;9441;51.420;7.036;2024-02-16T01:37:39;12.90;1.00
18624;DHT22;9441;51.420;7.036;2024-02-16T01:38:41;12.90;1.00
18624;DHT22;9441;51.420;7.036;2024-02-16T01:39:43;12.90;1.00
18624;DHT22;9441;51.420;7.036;2024-02-16T01:40:45;12.90;1.00
18624;DHT22;9441;51.420;7.036;2024-02-16T01:41:46;12.90;1.00
18624;DHT22;9441;51.420;7.036;2024-02-16T01:42:48;12.90;1.00
18624;DHT22;9441;51.420;7.036;2024-02-16T01:43:52;12.90;1.00
18624;DHT22;9441;51.420;7.036;2024-02-16T01:44:54;12.90;1.00
18624;DHT22;9441;51.420;7.036;2024-02-16T01:45:55;12.90;1.00
18624;DHT22;9441;51.420;7.036;2024-02-16T01:47:00;12.90;1.00
18624;DHT22;9441;51.420;7.036;2024-02-16T01:48:02;13.00;1.00
18624;DHT22;9441;51.420;7.036;2024-02-16T01:49:05;13.00;1.00
18624;DHT22;9441;51.420;7.036;2024-02-16T01:50:07;13.00;1.00
18624;DHT22;9441;51.420;7.036;2024-02-16T01:51:10;13.00;1.00
18624;DHT22;9441;51.420;7.036;2024-02-16T01:52:12;12.90;1.00
18624;DHT22;9441;51.420;7.036;2024-02-16T01:53:15;12.80;9.00
18624;DHT22;9441;51.420;7.036;2024-02-16T01:54:19;12.80;87.90
18624;DHT22;9441;51.420;7.036;2024-02-16T01:55:21;12.80;99.90
18624;DHT22;9441;51.420;7.036;2024-02-16T01:56:22;12.80;99.90
18624;DHT22;9441;51.420;7.036;2024-02-16T01:57:26;12.80;99.90
18624;DHT22;9441;51.420;7.036;2024-02-16T01:58:27;12.90;99.90
18624;DHT22;9441;51.420;7.036;2024-02-16T01:59:29;12.90;66.00
18624;DHT22;9441;51.420;7.036;2024-02-16T02:00:30;12.90;10.20
18624;DHT22;9441;51.420;7.036;2024-02-16T02:01:32;13.00;1.00
18624;DHT22;9441;51.420;7.036;2024-02-16T02:02:34;13.00;1.00
18624;DHT22;9441;51.420;7.036;2024-02-16T02:03:35;13.00;1.00
18624;DHT22;9441;51.420;7.036;2024-02-16T02:04:37;12.90;1.00
18624;DHT22;9441;51.420;7.036;2024-02-16T02:05:44;12.90;1.00
18624;DHT22;9441;51.420;7.036;2024-02-16T02:06:46;12.80;34.20
18624;DHT22;9441;51.420;7.036;2024-02-16T02:07:47;12.70;99.90
18624;DHT22;9441;51.420;7.036;2024-02-16T02:08:49;12.80;99.90
18624;DHT22;9441;51.420;7.036;2024-02-16T02:09:50;12.90;99.90
18624;DHT22;9441;51.420;7.036;2024-02-16T02:10:52;12.80;99.90
18624;DHT22;9441;51.420;7.036;2024-02-16T02:11:53;12.90;99.90
18624;DHT22;9441;51.420;7.036;2024-02-16T02:12:56;12.90;44.60
18624;DHT22;9441;51.420;7.036;2024-02-16T02:13:57;12.90;67.30
18624;DHT22;9441;51.420;7.036;2024-02-16T02:15:00;12.80;99.90
18624;DHT22;9441;51.420;7.036;2024-02-16T02:16:02;12.80;99.90
18624;DHT22;9441;51.420;7.036;2024-02-16T02:17:06;12.70;99.90
18624;DHT22;9441;51.420;7.036;2024-02-16T02:18:08;12.70;1.00
18624;DHT22;9441;51.420;7.036;2024-02-16T02:19:10;12.60;1.00
18624;DHT22;9441;51.420;7.036;2024-02-16T02:20:11;12.70;1.00
18624;DHT22;9441;51.420;7.036;2024-02-16T02:21:13;12.80;1.00
18624;DHT22;9441;51.420;7.036;2024-02-16T02:22:17;12.90;99.90
18624;DHT22;9441;51.420;7.036;2024-02-16T02:23:19;12.90;99.90
18624;DHT22;9441;51.420;7.036;2024-02-16T02:24:20;12.90;44.40
18624;DHT22;9441;51.420;7.036;2024-02-16T02:25:22;12.90;94.60
18624;DHT22;9441;51.420;7.036;2024-02-16T02:26:24;12.90;99.90
18624;DHT22;9441;51.420;7.036;2024-02-16T02:27:26;12.90;99.90
18624;DHT22;9441;51.420;7.036;2024-02-16T02:28:27;13.00;1.00
18624;DHT22;9441;51.420;7.036;2024-02-16T02:29:30;13.00;1.00
18624;DHT22;9441;51.420;7.036;2024-02-16T02:30:31;12.90;1.00
18624;DHT22;9441;51.420;7.036;2024-02-16T02:31:32;12.90;24.30
18624;DHT22;9441;51.420;7.036;2024-02-16T02:32:34;12.80;99.90
18624;DHT22;9441;51.420;7.036;2024-02-16T02:33:35;12.80;99.90
18624;DHT22;9441;51.420;7.036;2024-02-16T02:34:37;12.70;1.00
18624;DHT22;9441;51.420;7.036;2024-02-16T02:35:38;12.70;1.00
18624;DHT22;9441;51.420;7.036;2024-02-16T02:36:40;12.70;1.00
18624;DHT22;9441;51.420;7.036;2024-02-16T02:37:43;12.70;1.00
18624;DHT22;9441;51.420;7.036;2024-02-16T02:38:44;12.70;1.00
18624;DHT22;9441;51.420;7.036;2024-02-16T02:39:46;12.80;1.00
18624;DHT22;9441;51.420;7.036;2024-02-16T02:40:48;12.80;1.00
18624;DHT22;9441;51.420;7.036;2024-02-16T02:41:50;12.80;1.00
18624;DHT22;9441;51.420;7.036;2024-02-16T02:42:52;12.80;99.90
18624;DHT22;9441;51.420;7.036;2024-02-16T02:43:53;12.90;99.90
18624;DHT22;9441;51.420;7.036;2024-02-16T02:44:55;13.00;99.90
18624;DHT22;9441;51.420;7.036;2024-02-16T02:45:56;13.10;1.00
18624;DHT22;9441;51.420;7.036;2024-02-16T02:46:58;13.00;1.00
18624;DHT22;9441;51.420;7.036;2024-02-16T02:48:00;13.00;1.00
18624;DHT22;9441;51.420;7.036;2024-02-16T02:49:02;13.10;1.00
18624;DHT22;9441;51.420;7.036;2024-02-16T02:50:05;13.00;1.00
18624;DHT22;9441;51.420;7.036;2024-02-16T02:51:06;13.10;1.00
18624;DHT22;9441;51.420;7.036;2024-02-16T02:52:08;13.20;1.00
18624;DHT22;9441;51.420;7.036;2024-02-16T02:53:11;13.20;1.00
18624;DHT22;9441;51.420;7.036;2024-02-16T02:54:13;13.30;1.00
18624;DHT22;9441;51.420;7.036;2024-02-16T02:55:14;13.20;1.00
18624;DHT22;9441;51.420;7.036;2024-02-16T02:56:16;13.20;1.00
18624;DHT22;9441;51.420;7.036;2024-02-16T02:57:18;13.20;1.00
18624;DHT22;9441;51.420;7.036;2024-02-16T02:58:19;13.20;1.00
18624;DHT22;9441;51.420;7.036;2024-02-16T02:59:20;13.20;1.00
18624;DHT22;9441;51.420;7.036;2024-02-16T03:00:22;13.20;1.00
18624;DHT22;9441;51.420;7.036;2024-02-16T03:01:23;13.20;1.00
18624;DHT22;9441;51.420;7.036;2024-02-16T03:02:26;13.20;1.00
18624;DHT22;9441;51.420;7.036;2024-02-16T03:03:27;13.10;1.00
18624;DHT22;9441;51.420;7.036;2024-02-16T03:04:30;13.10;1.00
18624;DHT22;9441;51.420;7.036;2024-02-16T03:05:31;13.00;1.00
18624;DHT22;9441;51.420;7.036;2024-02-16T03:06:33;13.00;1.00
18624;DHT22;9441;51.420;7.036;2024-02-16T03:07:34;13.00;1.00
18624;DHT22;9441;51.420;7.036;2024-02-16T03:08:37;13.00;12.30
18624;DHT22;9441;51.420;7.036;2024-02-16T03:09:38;12.90;30.60
18624;DHT22;9441;51.420;7.036;2024-02-16T03:10:42;12.90;85.60
18624;DHT22;9441;51.420;7.036;2024-02-16T03:11:45;13.00;51.80
18624;DHT22;9441;51.420;7.036;2024-02-16T03:12:47;13.00;35.60
18624;DHT22;9441;51.420;7.036;2024-02-16T03:13:50;13.10;1.00
18624;DHT22;9441;51.420;7.036;2024-02-16T03:14:52;13.10;1.00
18624;DHT22;9441;51.420;7.036;2024-02-16T03:15:53;13.10;1.00
18624;DHT22;9441;51.420;7.036;2024-02-16T03:16:55;13.00;1.00
18624;DHT22;9441;51.420;7.036;2024-02-16T03:17:56;13.00;1.00
18624;DHT22;9441;51.420;7.036;2024-02-16T03:18:58;13.00;99.90
18624;DHT22;9441;51.420;7.036;2024-02-16T03:19:59;13.10;27.60
18624;DHT22;9441;51.420;7.036;2024-02-16T03:21:00;13.10;1.00
18624;DHT22;9441;51.420;7.036;2024-02-16T03:22:02;13.00;1.00
18624;DHT22;9441;51.420;7.036;2024-02-16T03:23:04;13.00;41.30
18624;DHT22;9441;51.420;7.036;2024-02-16T03:24:07;12.90;99.90
18624;DHT22;9441;51.420;7.036;2024-02-16T03:25:09;12.90;99.90
18624;DHT22;9441;51.420;7.036;2024-02-16T03:26:16;12.90;1.00
18624;DHT22;9441;51.420;7.036;2024-02-16T03:27:18;12.90;1.00
18624;DHT22;9441;51.420;7.036;2024-02-16T03:28:19;13.00;1.00
18624;DHT22;9441;51.420;7.036;2024-02-16T03:29:21;13.00;99.90
18624;DHT22;9441;51.420;7.036;2024-02-16T03:30:22;13.00;99.90
18624;DHT22;9441;51.420;7.036;2024-02-16T03:31:24;13.00;99.90
18624;DHT22;9441;51.420;7.036;2024-02-16T03:32:26;13.00;99.90
18624;DHT22;9441;51.420;7.036;2024-02-16T03:33:27;13.00;99.90
18624;DHT22;9441;51.420;7.036;2024-02-16T03:34:30;12.90;99.90
18624;DHT22;9441;51.420;7.036;2024-02-16T03:35:31;12.90;1.00
18624;DHT22;9441;51.420;7.036;2024-02-16T03:36:33;12.80;1.00
18624;DHT22;9441;51.420;7.036;2024-02-16T03:37:34;12.80;1.00
18624;DHT22;9441;51.420;7.036;2024-02-16T03:38:36;12.70;1.00
18624;DHT22;9441;51.420;7.036;2024-02-16T03:39:38;12.60;1.00
18624;DHT22;9441;51.420;7.036;2024-02-16T03:40:40;12.70;48.50
18624;DHT22;9441;51.420;7.036;2024-02-16T03:41:41;12.70;29.80
18624;DHT22;9441;51.420;7.036;2024-02-16T03:42:43;12.60;76.80
18624;DHT22;9441;51.420;7.036;2024-02-16T03:43:44;12.70;73.20
18624;DHT22;9441;51.420;7.036;2024-02-16T03:44:46;12.70;13.90
18624;DHT22;9441;51.420;7.036;2024-02-16T03:45:47;12.80;5.00
18624;DHT22;9441;51.420;7.036;2024-02-16T03:46:49;12.90;1.00
18624;DHT22;9441;51.420;7.036;2024-02-16T03:47:50;12.90;1.00
18624;DHT22;9441;51.420;7.036;2024-02-16T03:48:57;12.90;1.00
18624;DHT22;9441;51.420;7.036;2024-02-16T03:49:59;12.80;1.00
18624;DHT22;9441;51.420;7.036;2024-02-16T03:51:00;12.80;1.00
18624;DHT22;9441;51.420;7.036;2024-02-16T03:52:03;12.80;1.00
18624;DHT22;9441;51.420;7.036;2024-02-16T03:53:04;12.90;1.00
18624;DHT22;9441;51.420;7.036;2024-02-16T03:54:06;12.80;1.00
18624;DHT22;9441;51.420;7.036;2024-02-16T03:55:09;12.80;1.00
18624;DHT22;9441;51.420;7.036;2024-02-16T03:56:10;12.90;1.00
18624;DHT22;9441;51.420;7.036;2024-02-16T03:57:12;12.90;99.90
18624;DHT22;9441;51.420;7.036;2024-02-16T03:58:13;12.90;99.90
18624;DHT22;9441;51.420;7.036;2024-02-16T03:59:15;12.90;99.90
18624;DHT22;9441;51.420;7.036;2024-02-16T04:00:17;13.00;99.90
18624;DHT22;9441;51.420;7.036;2024-02-16T04:01:21;13.00;99.90
18624;DHT22;9441;51.420;7.036;2024-02-16T04:02:22;12.90;99.90
18624;DHT22;9441;51.420;7.036;2024-02-16T04:03:24;12.90;99.90
18624;DHT22;9441;51.420;7.036;2024-02-16T04:04:25;12.80;99.90
18624;DHT22;9441;51.420;7.036;2024-02-16T04:05:27;12.80;99.90
18624;DHT22;9441;51.420;7.036;2024-02-16T04:06:33;12.80;1.00
18624;DHT22;9441;51.420;7.036;2024-02-16T04:07:35;12.80;1.00
18624;DHT22;9441;51.420;7.036;2024-02-16T04:08:36;12.70;1.00
18624;DHT22;9441;51.420;7.036;2024-02-16T04:09:38;12.70;1.00
18624;DHT22;9441;51.420;7.036;2024-02-16T04:10:40;12.60;1.00
18624;DHT22;9441;51.420;7.036;2024-02-16T04:11:42;12.60;1.00
18624;DHT22;9441;51.420;7.036;2024-02-16T04:12:43;12.70;8.40
18624;DHT22;9441;51.420;7.036;2024-02-16T04:13:45;12.70;1.00
18624;DHT22;9441;51.420;7.036;2024-02-16T04:14:46;12.70;6.20
18624;DHT22;9441;51.420;7.036;2024-02-16T04:15:48;12.60;99.90
18624;DHT22;9441;51.420;7.036;2024-02-16T04:16:49;12.60;99.90
18624;DHT22;9441;51.420;7.036;2024-02-16T04:17:51;12.60;99.90
18624;DHT22;9441;51.420;7.036;2024-02-16T04:18:52;12.60;99.90
18624;DHT22;9441;51.420;7.036;2024-02-16T04:19:54;12.70;99.90
18624;DHT22;9441;51.420;7.036;2024-02-16T04:20:55;12.90;1.00
18624;DHT22;9441;51.420;7.036;2024-02-16T04:21:57;12.90;1.00
18624;DHT22;9441;51.420;7.036;2024-02-16T04:22:58;13.00;1.00
18624;DHT22;9441;51.420;7.036;2024-02-16T04:24:00;13.00;1.00
18624;DHT22;9441;51.420;7.036;2024-02-16T04:25:01;13.00;1.00
18624;DHT22;9441;51.420;7.036;2024-02-16T04:26:06;12.90;1.00
18624;DHT22;9441;51.420;7.036;2024-02-16T04:27:07;12.90;1.00
18624;DHT22;9441;51.420;7.036;2024-02-16T04:28:09;13.00;1.00
18624;DHT22;9441;51.420;7.036;2024-02-16T04:29:10;12.90;1.00
18624;DHT22;9441;51.420;7.036;2024-02-16T04:30:13;12.90;1.00
18624;DHT22;9441;51.420;7.036;2024-02-16T04:31:14;12.80;1.00
18624;DHT22;9441;51.420;7.036;2024-02-16T04:32:15;12.80;1.00
18624;DHT22;9441;51.420;7.036;2024-02-16T04:33:16;12.80;1.00
18624;DHT22;9441;51.420;7.036;2024-02-16T04:34:18;12.80;1.00
18624;DHT22;9441;51.420;7.036;2024-02-16T04:35:19;12.80;40.60
18624;DHT22;9441;51.420;7.036;2024-02-16T04:36:21;12.80;99.90
18624;DHT22;9441;51.420;7.036;2024-02-16T04:37:23;12.80;99.90
18624;DHT22;9441;51.420;7.036;2024-02-16T04:38:26;12.70;99.90
18624;DHT22;9441;51.420;7.036;2024-02-16T04:39:27;12.70;99.90
18624;DHT22;9441;51.420;7.036;2024-02-16T04:40:35;12.70;99.90
18624;DHT22;9441;51.420;7.036;2024-02-16T04:41:39;12.80;99.90
18624;DHT22;9441;51.420;7.036;2024-02-16T04:42:40;12.70;99.90
18624;DHT22;9441;51.420;7.036;2024-02-16T04:43:42;12.70;1.00
18624;DHT22;9441;51.420;7.036;2024-02-16T04:44:43;12.70;1.00
18624;DHT22;9441;51.420;7.036;2024-02-16T04:45:45;12.80;1.00
18624;DHT22;9441;51.420;7.036;2024-02-16T04:46:46;12.90;99.90
18624;DHT22;9441;51.420;7.036;2024-02-16T04:47:48;13.00;99.90
18624;DHT22;9441;51.420;7.036;2024-02-16T04:48:49;12.90;1.00
18624;DHT22;9441;51.420;7.036;2024-02-16T04:49:51;12.90;1.00
18624;DHT22;9441;51.420;7.036;2024-02-16T04:50:53;12.80;99.90
18624;DHT22;9441;51.420;7.036;2024-02-16T04:51:55;12.80;99.90
18624;DHT22;9441;51.420;7.036;2024-02-16T04:52:56;12.80;99.90
18624;DHT22;9441;51.420;7.036;2024-02-16T04:53:57;12.80;99.90
18624;DHT22;9441;51.420;7.036;2024-02-16T04:54:58;12.90;99.90
18624;DHT22;9441;51.420;7.036;2024-02-16T04:56:00;13.00;99.90
18624;DHT22;9441;51.420;7.036;2024-02-16T04:57:04;12.90;93.70
18624;DHT22;9441;51.420;7.036;2024-02-16T04:58:06;12.90;99.90
18624;DHT22;9441;51.420;7.036;2024-02-16T04:59:10;12.90;99.90
18624;DHT22;9441;51.420;7.036;2024-02-16T05:00:13;12.80;99.90
18624;DHT22;9441;51.420;7.036;2024-02-16T05:01:14;12.70;99.90
18624;DHT22;9441;51.420;7.036;2024-02-16T05:02:15;12.80;1.00
18624;DHT22;9441;51.420;7.036;2024-02-16T05:03:17;12.70;1.00
18624;DHT22;9441;51.420;7.036;2024-02-16T05:04:18;12.70;1.00
18624;DHT22;9441;51.420;7.036;2024-02-16T05:05:20;12.80;1.00
18624;DHT22;9441;51.420;7.036;2024-02-16T05:06:21;12.80;1.00
18624;DHT22;9441;51.420;7.036;2024-02-16T05:07:23;12.70;99.90
18624;DHT22;9441;51.420;7.036;2024-02-16T05:08:24;12.70;1.00
18624;DHT22;9441;51.420;7.036;2024-02-16T05:09:26;12.60;1.00
18624;DHT22;9441;51.420;7.036;2024-02-16T05:10:27;12.80;1.00
18624;DHT22;9441;51.420;7.036;2024-02-16T05:11:32;12.90;1.00
18624;DHT22;9441;51.420;7.036;2024-02-16T05:12:35;12.80;1.00
18624;DHT22;9441;51.420;7.036;2024-02-16T05:13:36;12.90;1.00
18624;DHT22;9441;51.420;7.036;2024-02-16T05:14:38;12.90;1.00
18624;DHT22;9441;51.420;7.036;2024-02-16T05:15:39;12.80;1.00
18624;DHT22;9441;51.420;7.036;2024-02-16T05:16:43;12.80;1.00
18624;DHT22;9441;51.420;7.036;2024-02-16T05:17:47;12.80;1.00
18624;DHT22;9441;51.420;7.036;2024-02-16T05:18:50;12.90;1.00
18624;DHT22;9441;51.420;7.036;2024-02-16T05:19:51;12.90;1.00
18624;DHT22;9441;51.420;7.036;2024-02-16T05:20:54;12.90;1.00
18624;DHT22;9441;51.420;7.036;2024-02-16T05:21:55;12.80;1.00
18624;DHT22;9441;51.420;7.036;2024-02-16T05:22:57;12.80;1.00
18624;DHT22;9441;51.420;7.036;2024-02-16T05:23:58;12.80;1.00
18624;DHT22;9441;51.420;7.036;2024-02-16T05:25:00;12.80;1.00
18624;DHT22;9441;51.420;7.036;2024-02-16T05:26:01;12.80;1.00
18624;DHT22;9441;51.420;7.036;2024-02-16T05:27:03;12.80;1.00
18624;DHT22;9441;51.420;7.036;2024-02-16T05:28:06;12.80;1.00
18624;DHT22;9441;51.420;7.036;2024-02-16T05:29:09;12.80;1.00
18624;DHT22;9441;51.420;7.036;2024-02-16T05:30:11;12.90;1.00
18624;DHT22;9441;51.420;7.036;2024-02-16T05:31:16;12.90;1.00
18624;DHT22;9441;51.420;7.036;2024-02-16T05:32:18;12.90;1.00
18624;DHT22;9441;51.420;7.036;2024-02-16T05:33:19;12.90;1.00
18624;DHT22;9441;51.420;7.036;2024-02-16T05:34:21;13.00;1.00
18624;DHT22;9441;51.420;7.036;2024-02-16T05:35:22;13.10;1.00
18624;DHT22;9441;51.420;7.036;2024-02-16T05:36:28;13.10;1.00
18624;DHT22;9441;51.420;7.036;2024-02-16T05:37:35;13.10;1.00
18624;DHT22;9441;51.420;7.036;2024-02-16T05:38:37;13.10;1.00
18624;DHT22;9441;51.420;7.036;2024-02-16T05:39:41;13.10;1.00
18624;DHT22;9441;51.420;7.036;2024-02-16T05:40:54;13.10;1.00
18624;DHT22;9441;51.420;7.036;2024-02-16T05:41:57;13.10;1.00
18624;DHT22;9441;51.420;7.036;2024-02-16T05:42:59;13.10;1.00
18624;DHT22;9441;51.420;7.036;2024-02-16T05:44:02;13.20;1.00
18624;DHT22;9441;51.420;7.036;2024-02-16T05:45:04;13.20;99.90
18624;DHT22;9441;51.420;7.036;2024-02-16T05:46:07;13.30;99.90
18624;DHT22;9441;51.420;7.036;2024-02-16T05:47:14;13.20;99.90
18624;DHT22;9441;51.420;7.036;2024-02-16T05:48:15;13.20;99.90
18624;DHT22;9441;51.420;7.036;2024-02-16T05:49:17;13.30;99.90
18624;DHT22;9441;51.420;7.036;2024-02-16T05:50:21;13.20;99.90
18624;DHT22;9441;51.420;7.036;2024-02-16T05:51:23;13.20;99.90
18624;DHT22;9441;51.420;7.036;2024-02-16T05:52:24;13.20;99.90
18624;DHT22;9441;51.420;7.036;2024-02-16T05:53:26;13.20;99.90
18624;DHT22;9441;51.420;7.036;2024-02-16T05:54:28;13.10;1.00
18624;DHT22;9441;51.420;7.036;2024-02-16T05:55:30;13.10;1.00
18624;DHT22;9441;51.420;7.036;2024-02-16T05:56:31;13.20;1.00
18624;DHT22;9441;51.420;7.036;2024-02-16T05:57:34;13.20;1.00
18624;DHT22;9441;51.420;7.036;2024-02-16T05:58:35;13.30;99.90
18624;DHT22;9441;51.420;7.036;2024-02-16T05:59:38;13.20;99.90
18624;DHT22;9441;51.420;7.036;2024-02-16T06:00:40;13.10;99.90
18624;DHT22;9441;51.420;7.036;2024-02-16T06:01:43;13.10;1.00
18624;DHT22;9441;51.420;7.036;2024-02-16T06:02:45;13.10;1.00
18624;DHT22;9441;51.420;7.036;2024-02-16T06:03:46;13.00;1.00
18624;DHT22;9441;51.420;7.036;2024-02-16T06:04:48;13.00;1.00
18624;DHT22;9441;51.420;7.036;2024-02-16T06:05:50;12.90;1.00
18624;DHT22;9441;51.420;7.036;2024-02-16T06:06:52;13.00;1.00
18624;DHT22;9441;51.420;7.036;2024-02-16T06:07:54;13.00;47.60
18624;DHT22;9441;51.420;7.036;2024-02-16T06:08:57;13.00;1.00
18624;DHT22;9441;51.420;7.036;2024-02-16T06:09:59;13.00;8.00
18624;DHT22;9441;51.420;7.036;2024-02-16T06:11:07;13.10;1.00
18624;DHT22;9441;51.420;7.036;2024-02-16T06:12:08;13.20;1.00
18624;DHT22;9441;51.420;7.036;2024-02-16T06:13:12;13.20;1.00
18624;DHT22;9441;51.420;7.036;2024-02-16T06:14:13;13.10;1.00
18624;DHT22;9441;51.420;7.036;2024-02-16T06:15:17;13.00;1.00
18624;DHT22;9441;51.420;7.036;2024-02-16T06:16:18;13.00;1.00
18624;DHT22;9441;51.420;7.036;2024-02-16T06:17:20;12.90;1.00
18624;DHT22;9441;51.420;7.036;2024-02-16T06:18:21;12.90;99.90
18624;DHT22;9441;51.420;7.036;2024-02-16T06:19:23;12.90;99.90
18624;DHT22;9441;51.420;7.036;2024-02-16T06:20:24;13.10;66.50
18624;DHT22;9441;51.420;7.036;2024-02-16T06:21:26;13.10;1.00
18624;DHT22;9441;51.420;7.036;2024-02-16T06:22:27;13.20;1.00
18624;DHT22;9441;51.420;7.036;2024-02-16T06:23:29;13.10;1.00
18624;DHT22;9441;51.420;7.036;2024-02-16T06:24:30;13.10;1.00
18624;DHT22;9441;51.420;7.036;2024-02-16T06:25:32;13.10;1.00
18624;DHT22;9441;51.420;7.036;2024-02-16T06:26:33;13.10;1.00
18624;DHT22;9441;51.420;7.036;2024-02-16T06:27:34;13.10;1.00
18624;DHT22;9441;51.420;7.036;2024-02-16T06:28:37;13.10;1.00
18624;DHT22;9441;51.420;7.036;2024-02-16T06:29:38;12.90;57.50
18624;DHT22;9441;51.420;7.036;2024-02-16T06:30:41;13.10;1.00
18624;DHT22;9441;51.420;7.036;2024-02-16T06:31:43;13.10;1.00
18624;DHT22;9441;51.420;7.036;2024-02-16T06:32:45;13.10;1.00
18624;DHT22;9441;51.420;7.036;2024-02-16T06:33:46;13.10;1.00
18624;DHT22;9441;51.420;7.036;2024-02-16T06:34:48;13.10;1.00
18624;DHT22;9441;51.420;7.036;2024-02-16T06:35:49;13.10;1.00
18624;DHT22;9441;51.420;7.036;2024-02-16T06:36:51;13.20;1.00
18624;DHT22;9441;51.420;7.036;2024-02-16T06:37:52;13.10;1.00
18624;DHT22;9441;51.420;7.036;2024-02-16T06:38:56;13.20;1.00
18624;DHT22;9441;51.420;7.036;2024-02-16T06:39:57;13.20;1.00
18624;DHT22;9441;51.420;7.036;2024-02-16T06:40:58;13.20;1.00
18624;DHT22;9441;51.420;7.036;2024-02-16T06:41:59;13.20;1.00